createdAt,value
2018-12-31T00:00:17.688Z,13.80
2018-12-31T00:02:47.163Z,12.10
2018-12-31T00:05:18.117Z,13.37
2018-12-31T00:07:47.577Z,13.10
2018-12-31T00:10:17.050Z,14.60
2018-12-31T00:12:48.052Z,10.43
2018-12-31T00:15:18.077Z,11.30
2018-12-31T00:17:47.631Z,14.47
2018-12-31T00:20:18.249Z,12.97
2018-12-31T00:22:47.777Z,12.17
2018-12-31T00:25:17.246Z,12.97
2018-12-31T00:27:46.725Z,11.40
2018-12-31T00:30:16.269Z,12.80
2018-12-31T00:32:46.282Z,12.77
2018-12-31T00:35:15.788Z,13.00
2018-12-31T00:37:45.809Z,11.90
2018-12-31T00:40:15.267Z,12.20
2018-12-31T00:42:44.730Z,11.67
2018-12-31T00:45:14.201Z,11.80
2018-12-31T00:47:43.706Z,12.27
2018-12-31T00:50:13.172Z,13.10
2018-12-31T00:52:42.896Z,11.10
2018-12-31T00:55:12.622Z,10.13
2018-12-31T00:57:42.068Z,12.00
2018-12-31T01:00:11.621Z,11.63
2018-12-31T01:02:41.100Z,10.10
2018-12-31T01:05:11.102Z,12.53
2018-12-31T01:07:41.014Z,13.97
2018-12-31T01:10:10.917Z,11.80
2018-12-31T01:12:41.359Z,11.97
2018-12-31T01:15:11.675Z,11.43
2018-12-31T01:17:43.249Z,11.47
2018-12-31T01:20:12.771Z,10.50
2018-12-31T01:22:42.235Z,14.73
2018-12-31T01:25:11.715Z,12.30
2018-12-31T01:27:41.178Z,15.60
2018-12-31T01:30:12.639Z,13.03
2018-12-31T01:32:42.288Z,12.90
2018-12-31T01:35:11.806Z,11.30
2018-12-31T01:37:41.266Z,13.00
2018-12-31T01:40:10.760Z,12.03
2018-12-31T01:42:40.220Z,13.10
2018-12-31T01:45:09.685Z,13.73
2018-12-31T01:47:39.139Z,12.03
2018-12-31T01:50:09.369Z,11.60
2018-12-31T01:52:41.114Z,12.07
2018-12-31T01:55:10.542Z,11.33
2018-12-31T01:57:40.020Z,12.47
2018-12-31T02:00:09.843Z,11.70
2018-12-31T02:02:39.315Z,13.57
2018-12-31T02:05:08.782Z,10.13
2018-12-31T02:07:38.234Z,12.10
2018-12-31T02:10:08.364Z,10.13
2018-12-31T02:12:37.809Z,11.23
2018-12-31T02:15:07.894Z,10.70
2018-12-31T02:17:37.316Z,13.07
2018-12-31T02:20:06.922Z,10.97
2018-12-31T02:22:36.385Z,10.83
2018-12-31T02:25:06.738Z,10.60
2018-12-31T02:27:36.556Z,11.30
2018-12-31T02:30:06.780Z,11.07
2018-12-31T02:32:36.193Z,10.90
2018-12-31T02:35:05.993Z,9.17
2018-12-31T02:37:35.448Z,12.60
2018-12-31T02:40:05.837Z,10.43
2018-12-31T02:42:35.369Z,9.43
2018-12-31T02:45:04.981Z,9.40
2018-12-31T02:47:34.726Z,9.73
2018-12-31T02:50:05.430Z,10.40
2018-12-31T02:52:34.939Z,11.00
2018-12-31T02:55:04.484Z,8.60
2018-12-31T02:57:34.090Z,9.20
2018-12-31T03:00:04.838Z,9.13
2018-12-31T03:02:34.690Z,10.23
2018-12-31T03:05:05.511Z,9.27
2018-12-31T03:07:35.302Z,9.70
2018-12-31T03:10:05.844Z,9.00
2018-12-31T03:12:35.774Z,9.80
2018-12-31T03:15:06.147Z,8.50
2018-12-31T03:17:35.604Z,8.90
2018-12-31T03:20:05.350Z,8.63
2018-12-31T03:22:34.825Z,8.87
2018-12-31T03:25:04.480Z,9.60
2018-12-31T03:27:33.927Z,8.00
2018-12-31T03:30:03.401Z,9.23
2018-12-31T03:32:32.885Z,8.80
2018-12-31T03:35:02.358Z,7.43
2018-12-31T03:37:31.821Z,8.77
2018-12-31T03:40:01.336Z,9.13
2018-12-31T03:42:30.843Z,8.50
2018-12-31T03:45:00.857Z,9.43
2018-12-31T03:47:30.336Z,8.50
2018-12-31T03:49:59.807Z,9.13
2018-12-31T03:52:29.853Z,9.37
2018-12-31T03:54:59.349Z,8.23
2018-12-31T03:57:28.864Z,9.80
2018-12-31T03:59:58.344Z,9.30
2018-12-31T04:02:27.798Z,7.97
2018-12-31T04:04:57.269Z,9.23
2018-12-31T04:07:26.738Z,9.37
2018-12-31T04:09:56.633Z,7.47
2018-12-31T04:12:26.099Z,10.10
2018-12-31T04:14:55.820Z,8.37
2018-12-31T04:17:25.679Z,7.03
2018-12-31T04:19:55.169Z,9.93
2018-12-31T04:22:24.764Z,8.43
2018-12-31T04:24:54.280Z,10.03
2018-12-31T04:27:23.772Z,7.87
2018-12-31T04:29:53.380Z,7.70
2018-12-31T04:32:22.811Z,6.90
2018-12-31T04:34:52.284Z,7.07
2018-12-31T04:37:21.789Z,6.27
2018-12-31T04:40:10.565Z,7.87
2018-12-31T04:42:59.327Z,5.67
2018-12-31T04:45:48.100Z,5.70
2018-12-31T04:48:17.531Z,5.43
2018-12-31T04:50:46.963Z,5.07
2018-12-31T04:53:16.383Z,4.80
2018-12-31T04:55:45.832Z,6.33
2018-12-31T04:58:22.739Z,4.83
2018-12-31T05:00:47.957Z,5.60
2018-12-31T05:03:17.402Z,4.47
2018-12-31T05:05:46.845Z,4.20
2018-12-31T05:08:16.505Z,3.70
2018-12-31T05:10:45.971Z,4.60
2018-12-31T05:13:15.373Z,4.50
2018-12-31T05:15:44.819Z,3.70
2018-12-31T05:18:14.241Z,3.93
2018-12-31T05:20:43.679Z,3.80
2018-12-31T05:23:13.110Z,3.40
2018-12-31T05:25:42.535Z,3.63
2018-12-31T05:28:11.956Z,3.50
2018-12-31T05:30:41.405Z,3.77
2018-12-31T05:33:10.813Z,3.50
2018-12-31T05:35:40.327Z,3.50
2018-12-31T05:38:09.774Z,4.17
2018-12-31T05:40:39.210Z,3.10
2018-12-31T05:43:08.628Z,3.20
2018-12-31T05:45:38.070Z,3.30
2018-12-31T05:48:07.491Z,3.23
2018-12-31T05:50:36.945Z,3.20
2018-12-31T05:53:06.354Z,3.00
2018-12-31T05:55:35.776Z,4.37
2018-12-31T05:58:05.202Z,3.03
2018-12-31T06:00:35.998Z,2.47
2018-12-31T06:03:05.440Z,3.17
2018-12-31T06:05:34.864Z,2.93
2018-12-31T06:08:04.302Z,2.80
2018-12-31T06:10:33.723Z,2.87
2018-12-31T06:13:03.160Z,2.00
2018-12-31T06:15:32.595Z,2.50
2018-12-31T06:18:02.029Z,2.47
2018-12-31T06:20:31.454Z,2.40
2018-12-31T06:23:00.879Z,2.10
2018-12-31T06:25:30.308Z,2.37
2018-12-31T06:27:59.744Z,2.50
2018-12-31T06:30:29.172Z,2.30
2018-12-31T06:32:58.596Z,2.90
2018-12-31T06:35:28.024Z,2.30
2018-12-31T06:37:57.445Z,2.10
2018-12-31T06:40:28.577Z,2.43
2018-12-31T06:42:58.182Z,2.67
2018-12-31T06:45:27.616Z,2.53
2018-12-31T06:47:57.039Z,1.60
2018-12-31T06:50:26.455Z,2.10
2018-12-31T06:52:57.573Z,2.07
2018-12-31T06:55:27.095Z,2.20
2018-12-31T06:57:56.528Z,2.03
2018-12-31T07:00:25.955Z,2.13
2018-12-31T07:02:55.382Z,2.10
2018-12-31T07:05:24.823Z,4.33
2018-12-31T07:07:54.242Z,1.70
2018-12-31T07:10:23.674Z,1.70
2018-12-31T07:12:53.101Z,1.70
2018-12-31T07:15:22.528Z,1.90
2018-12-31T07:17:51.953Z,2.00
2018-12-31T07:20:21.399Z,1.90
2018-12-31T07:22:50.839Z,2.07
2018-12-31T07:25:20.279Z,1.93
2018-12-31T07:27:49.707Z,1.70
2018-12-31T07:30:19.133Z,1.77
2018-12-31T07:32:48.578Z,1.70
2018-12-31T07:35:17.982Z,1.70
2018-12-31T07:37:47.406Z,1.90
2018-12-31T07:40:16.829Z,1.50
2018-12-31T07:42:46.263Z,2.13
2018-12-31T07:45:15.687Z,1.67
2018-12-31T07:47:45.141Z,1.80
2018-12-31T07:50:14.665Z,1.60
2018-12-31T07:52:44.111Z,1.83
2018-12-31T07:55:13.530Z,1.70
2018-12-31T07:57:43.051Z,1.80
2018-12-31T08:00:12.497Z,1.70
2018-12-31T08:02:41.927Z,1.70
2018-12-31T08:05:11.342Z,1.63
2018-12-31T08:07:40.797Z,3.07
2018-12-31T08:10:10.215Z,1.83
2018-12-31T08:12:39.680Z,1.87
2018-12-31T08:15:09.112Z,1.80
2018-12-31T08:17:38.547Z,1.80
2018-12-31T08:20:08.025Z,1.73
2018-12-31T08:22:37.458Z,2.20
2018-12-31T08:25:08.252Z,1.57
2018-12-31T08:27:39.335Z,1.67
2018-12-31T08:30:09.225Z,2.40
2018-12-31T08:32:38.659Z,2.07
2018-12-31T08:35:08.100Z,1.70
2018-12-31T08:37:39.188Z,1.73
2018-12-31T08:40:08.679Z,2.53
2018-12-31T08:42:38.113Z,1.90
2018-12-31T08:45:07.714Z,2.10
2018-12-31T08:47:37.286Z,2.40
2018-12-31T08:50:07.745Z,1.60
2018-12-31T08:52:37.187Z,2.17
2018-12-31T08:55:06.674Z,2.43
2018-12-31T08:57:36.118Z,1.80
2018-12-31T09:00:08.847Z,2.27
2018-12-31T09:02:38.285Z,2.83
2018-12-31T09:05:07.842Z,2.90
2018-12-31T09:07:37.299Z,2.20
2018-12-31T09:10:06.992Z,1.77
2018-12-31T09:12:36.438Z,1.70
2018-12-31T09:15:06.396Z,2.23
2018-12-31T09:17:35.835Z,1.90
2018-12-31T09:20:07.469Z,2.47
2018-12-31T09:22:36.895Z,3.13
2018-12-31T09:25:06.755Z,2.10
2018-12-31T09:27:36.207Z,2.13
2018-12-31T09:30:06.413Z,2.60
2018-12-31T09:32:35.914Z,2.73
2018-12-31T09:35:05.681Z,2.13
2018-12-31T09:37:35.100Z,2.97
2018-12-31T09:40:05.273Z,3.60
2018-12-31T09:42:34.702Z,2.87
2018-12-31T09:45:04.565Z,3.07
2018-12-31T09:47:34.015Z,2.03
2018-12-31T09:50:03.612Z,2.10
2018-12-31T09:52:33.043Z,2.73
2018-12-31T09:55:02.482Z,10.43
2018-12-31T09:57:31.913Z,3.33
2018-12-31T10:00:01.342Z,1.70
2018-12-31T10:02:30.762Z,2.00
2018-12-31T10:05:00.251Z,3.13
2018-12-31T10:07:29.653Z,1.80
2018-12-31T10:09:59.083Z,3.67
2018-12-31T10:12:28.512Z,1.80
2018-12-31T10:14:57.956Z,2.13
2018-12-31T10:17:27.365Z,2.20
2018-12-31T10:19:56.799Z,2.03
2018-12-31T10:22:26.223Z,3.27
2018-12-31T10:24:55.679Z,2.87
2018-12-31T10:27:25.118Z,4.10
2018-12-31T10:29:54.591Z,3.57
2018-12-31T10:32:23.990Z,3.87
2018-12-31T10:34:53.431Z,2.80
2018-12-31T10:37:22.865Z,2.37
2018-12-31T10:39:52.312Z,2.23
2018-12-31T10:42:21.753Z,2.27
2018-12-31T10:44:51.178Z,2.47
2018-12-31T10:47:20.605Z,3.33
2018-12-31T10:50:09.389Z,2.07
2018-12-31T10:52:58.146Z,4.67
2018-12-31T10:55:46.918Z,2.43
2018-12-31T10:58:35.683Z,2.70
2018-12-31T11:01:24.465Z,2.40
2018-12-31T11:04:32.276Z,1.77
2018-12-31T11:07:21.057Z,2.60
2018-12-31T11:10:29.153Z,18.20
2018-12-31T11:13:17.924Z,2.00
2018-12-31T11:15:59.215Z,1.53
2018-12-31T11:18:47.976Z,1.50
2018-12-31T11:21:36.762Z,1.97
2018-12-31T11:24:25.567Z,1.50
2018-12-31T11:27:14.333Z,1.77
2018-12-31T11:30:03.105Z,2.57
2018-12-31T11:32:51.862Z,1.83
2018-12-31T11:35:21.303Z,1.53
2018-12-31T11:38:10.087Z,1.43
2018-12-31T11:40:58.865Z,1.60
2018-12-31T11:43:47.632Z,2.40
2018-12-31T11:46:36.400Z,2.70
2018-12-31T11:49:25.169Z,2.53
2018-12-31T11:52:13.948Z,1.50
2018-12-31T11:55:03.599Z,1.97
2018-12-31T11:57:53.231Z,2.27
2018-12-31T12:00:42.028Z,2.27
2018-12-31T12:03:30.794Z,2.53
2018-12-31T12:06:19.565Z,2.00
2018-12-31T12:08:49.005Z,1.83
2018-12-31T12:11:37.837Z,1.80
2018-12-31T12:14:07.776Z,1.90
2018-12-31T12:16:37.294Z,1.80
2018-12-31T12:19:07.120Z,1.90
2018-12-31T12:21:36.598Z,7.63
2018-12-31T12:24:06.049Z,11.33
2018-12-31T12:26:35.576Z,2.53
2018-12-31T12:29:05.054Z,1.80
2018-12-31T12:31:34.929Z,2.37
2018-12-31T12:34:04.449Z,2.40
2018-12-31T12:36:33.950Z,2.30
2018-12-31T12:39:04.697Z,2.20
2018-12-31T12:41:34.211Z,3.83
2018-12-31T12:44:03.704Z,2.47
2018-12-31T12:46:33.700Z,4.17
2018-12-31T12:49:03.148Z,2.33
2018-12-31T12:51:32.661Z,2.37
2018-12-31T12:54:02.103Z,2.50
2018-12-31T12:56:31.555Z,2.47
2018-12-31T12:59:01.318Z,2.67
2018-12-31T13:01:30.767Z,2.97
2018-12-31T13:04:00.232Z,2.53
2018-12-31T13:06:30.335Z,2.17
2018-12-31T13:08:59.776Z,2.30
2018-12-31T13:11:29.279Z,2.60
2018-12-31T13:13:58.748Z,10.83
2018-12-31T13:16:28.294Z,3.90
2018-12-31T13:18:58.602Z,3.23
2018-12-31T13:21:28.134Z,2.60
2018-12-31T13:23:57.595Z,2.17
2018-12-31T13:26:27.179Z,2.90
2018-12-31T13:28:56.745Z,3.13
2018-12-31T13:31:26.246Z,2.67
2018-12-31T13:33:55.707Z,4.43
2018-12-31T13:36:25.322Z,2.57
2018-12-31T13:38:54.738Z,3.40
2018-12-31T13:41:24.257Z,2.77
2018-12-31T13:43:53.698Z,4.90
2018-12-31T13:46:24.519Z,3.17
2018-12-31T13:48:54.031Z,2.80
2018-12-31T13:51:24.014Z,2.70
2018-12-31T13:53:53.885Z,3.10
2018-12-31T13:56:23.404Z,2.77
2018-12-31T13:58:52.960Z,2.80
2018-12-31T14:01:23.365Z,3.70
2018-12-31T14:03:52.822Z,4.00
2018-12-31T14:06:22.329Z,3.27
2018-12-31T14:08:52.807Z,3.83
2018-12-31T14:11:22.381Z,4.03
2018-12-31T14:13:51.949Z,3.83
2018-12-31T14:16:21.935Z,2.80
2018-12-31T14:18:51.476Z,4.40
2018-12-31T14:21:21.012Z,3.40
2018-12-31T14:23:50.868Z,3.33
2018-12-31T14:26:20.487Z,2.73
2018-12-31T14:28:50.373Z,4.07
2018-12-31T14:31:19.817Z,4.23
2018-12-31T14:33:49.277Z,5.27
2018-12-31T14:36:18.727Z,5.83
2018-12-31T14:38:48.198Z,5.40
2018-12-31T14:41:17.833Z,3.40
2018-12-31T14:43:47.314Z,3.93
2018-12-31T14:46:17.980Z,3.13
2018-12-31T14:48:47.450Z,4.30
2018-12-31T14:51:21.800Z,12.00
2018-12-31T14:53:51.231Z,12.27
2018-12-31T14:56:21.302Z,14.23
2018-12-31T14:58:51.423Z,4.60
2018-12-31T15:01:21.351Z,3.50
2018-12-31T15:03:51.560Z,3.27
2018-12-31T15:06:21.490Z,4.03
2018-12-31T15:08:51.099Z,4.47
2018-12-31T15:11:20.598Z,4.23
2018-12-31T15:13:52.536Z,3.90
2018-12-31T15:16:22.024Z,4.00
2018-12-31T15:18:51.553Z,4.13
2018-12-31T15:21:21.015Z,4.07
2018-12-31T15:23:50.536Z,4.10
2018-12-31T15:26:20.057Z,4.80
2018-12-31T15:28:51.246Z,4.60
2018-12-31T15:31:23.100Z,5.07
2018-12-31T15:33:52.589Z,4.47
2018-12-31T15:36:22.142Z,5.13
2018-12-31T15:38:52.106Z,4.23
2018-12-31T15:41:21.531Z,4.13
2018-12-31T15:43:51.008Z,4.13
2018-12-31T15:46:20.718Z,4.73
2018-12-31T15:48:50.365Z,4.50
2018-12-31T15:51:19.811Z,4.20
2018-12-31T15:53:49.276Z,5.13
2018-12-31T15:56:19.154Z,5.23
2018-12-31T15:58:48.635Z,4.87
2018-12-31T16:01:18.097Z,5.40
2018-12-31T16:03:47.556Z,5.10
2018-12-31T16:06:18.230Z,5.43
2018-12-31T16:08:49.975Z,6.13
2018-12-31T16:11:19.464Z,6.03
2018-12-31T16:13:49.010Z,5.73
2018-12-31T16:16:18.646Z,5.70
2018-12-31T16:18:48.096Z,6.57
2018-12-31T16:21:17.556Z,5.97
2018-12-31T16:23:47.064Z,7.60
2018-12-31T16:26:16.881Z,8.73
2018-12-31T16:28:46.377Z,5.80
2018-12-31T16:31:15.851Z,5.40
2018-12-31T16:33:45.416Z,5.50
2018-12-31T16:36:15.005Z,5.93
2018-12-31T16:38:44.727Z,6.80
2018-12-31T16:41:14.695Z,8.27
2018-12-31T16:43:45.480Z,7.10
2018-12-31T16:46:15.048Z,7.13
2018-12-31T16:48:44.573Z,6.97
2018-12-31T16:51:14.113Z,7.70
2018-12-31T16:53:43.637Z,9.57
2018-12-31T16:56:13.096Z,7.33
2018-12-31T16:58:42.702Z,9.20
2018-12-31T17:01:12.229Z,9.07
2018-12-31T17:03:41.801Z,7.93
2018-12-31T17:06:11.448Z,11.53
2018-12-31T17:08:40.957Z,8.23
2018-12-31T17:11:12.152Z,9.30
2018-12-31T17:13:44.998Z,7.57
2018-12-31T17:16:14.596Z,7.70
2018-12-31T17:18:44.184Z,9.40
2018-12-31T17:21:13.852Z,7.90
2018-12-31T17:23:43.490Z,9.33
2018-12-31T17:26:13.595Z,10.33
2018-12-31T17:28:43.078Z,10.17
2018-12-31T17:31:12.529Z,12.30
2018-12-31T17:33:42.183Z,11.10
2018-12-31T17:36:11.673Z,11.73
2018-12-31T17:38:41.633Z,15.57
2018-12-31T17:41:11.078Z,11.07
2018-12-31T17:43:40.636Z,11.83
2018-12-31T17:46:10.555Z,11.70
2018-12-31T17:48:40.569Z,12.07
2018-12-31T17:51:11.003Z,13.47
2018-12-31T17:53:41.314Z,19.00
2018-12-31T17:56:12.761Z,14.67
2018-12-31T17:58:42.345Z,15.93
2018-12-31T18:01:11.862Z,15.90
2018-12-31T18:03:41.437Z,14.03
2018-12-31T18:06:10.914Z,16.93
2018-12-31T18:08:40.346Z,16.53
2018-12-31T18:11:09.828Z,18.50
2018-12-31T18:13:39.280Z,14.93
2018-12-31T18:16:08.747Z,15.93
2018-12-31T18:18:38.218Z,17.37
2018-12-31T18:21:07.694Z,15.60
2018-12-31T18:23:37.285Z,15.13
2018-12-31T18:26:06.865Z,14.07
2018-12-31T18:28:36.758Z,18.47
2018-12-31T18:31:06.242Z,16.80
2018-12-31T18:33:35.691Z,17.73
2018-12-31T18:36:05.219Z,16.77
2018-12-31T18:38:35.131Z,16.93
2018-12-31T18:41:04.779Z,16.10
2018-12-31T18:43:34.242Z,16.83
2018-12-31T18:46:03.716Z,15.90
2018-12-31T18:48:33.252Z,16.33
2018-12-31T18:51:03.108Z,15.03
2018-12-31T18:53:32.553Z,16.23
2018-12-31T18:56:02.097Z,16.33
2018-12-31T18:58:31.872Z,17.70
2018-12-31T19:01:02.063Z,38.03
2018-12-31T19:03:31.859Z,22.77
2018-12-31T19:06:01.348Z,15.77
2018-12-31T19:08:30.802Z,16.47
2018-12-31T19:11:00.266Z,15.37
2018-12-31T19:13:29.713Z,16.47
2018-12-31T19:15:59.483Z,16.37
2018-12-31T19:18:28.965Z,16.73
2018-12-31T19:20:58.413Z,18.03
2018-12-31T19:23:27.878Z,16.40
2018-12-31T19:25:57.359Z,14.90
2018-12-31T19:28:26.986Z,17.43
2018-12-31T19:30:56.466Z,18.57
2018-12-31T19:33:26.475Z,17.17
2018-12-31T19:35:56.270Z,17.47
2018-12-31T19:38:26.290Z,17.07
2018-12-31T19:40:56.318Z,17.73
2018-12-31T19:43:26.221Z,51.60
2018-12-31T19:45:56.234Z,30.00
2018-12-31T19:48:26.162Z,24.97
2018-12-31T19:50:55.698Z,20.40
2018-12-31T19:53:25.229Z,19.80
2018-12-31T19:55:56.849Z,20.30
2018-12-31T19:58:26.912Z,19.10
2018-12-31T20:00:56.514Z,20.80
2018-12-31T20:03:26.044Z,21.17
2018-12-31T20:05:55.519Z,24.20
2018-12-31T20:08:25.000Z,24.13
2018-12-31T20:10:54.507Z,21.03
2018-12-31T20:13:23.959Z,23.63
2018-12-31T20:15:53.799Z,24.27
2018-12-31T20:18:23.264Z,27.00
2018-12-31T20:20:53.514Z,20.83
2018-12-31T20:23:24.554Z,19.53
2018-12-31T20:25:54.176Z,22.90
2018-12-31T20:28:24.031Z,22.43
2018-12-31T20:30:53.557Z,24.80
2018-12-31T20:33:23.024Z,23.33
2018-12-31T20:35:52.643Z,28.43
2018-12-31T20:38:22.122Z,25.53
2018-12-31T20:40:51.615Z,26.20
2018-12-31T20:43:21.079Z,28.03
2018-12-31T20:45:50.683Z,30.00
2018-12-31T20:48:20.161Z,27.30
2018-12-31T20:50:49.669Z,29.87
2018-12-31T20:53:19.148Z,29.97
2018-12-31T20:55:55.957Z,30.93
2018-12-31T20:58:25.490Z,33.40
2018-12-31T21:00:54.940Z,30.53
2018-12-31T21:03:24.497Z,25.83
2018-12-31T21:05:55.952Z,22.20
2018-12-31T21:08:25.460Z,53.20
2018-12-31T21:10:54.917Z,35.03
2018-12-31T21:13:24.422Z,33.53
2018-12-31T21:15:55.926Z,33.47
2018-12-31T21:18:25.767Z,38.33
2018-12-31T21:20:55.212Z,32.40
2018-12-31T21:23:24.709Z,32.37
2018-12-31T21:25:54.593Z,38.13
2018-12-31T21:28:24.643Z,34.20
2018-12-31T21:30:54.839Z,28.43
2018-12-31T21:33:24.867Z,35.83
2018-12-31T21:35:54.767Z,29.93
2018-12-31T21:38:24.321Z,29.60
2018-12-31T21:40:53.904Z,31.17
2018-12-31T21:43:23.826Z,33.97
2018-12-31T21:45:53.336Z,35.43
2018-12-31T21:48:22.761Z,30.27
2018-12-31T21:50:52.244Z,29.23
2018-12-31T21:53:22.314Z,30.53
2018-12-31T21:55:51.906Z,31.17
2018-12-31T21:58:21.381Z,29.17
2018-12-31T22:00:50.836Z,27.97
2018-12-31T22:03:20.318Z,30.83
2018-12-31T22:05:49.846Z,29.10
2018-12-31T22:08:20.188Z,33.13
2018-12-31T22:10:50.103Z,35.47
2018-12-31T22:13:19.607Z,40.17
2018-12-31T22:15:49.069Z,42.63
2018-12-31T22:18:18.759Z,36.23
2018-12-31T22:20:48.675Z,32.90
2018-12-31T22:23:18.164Z,32.37
2018-12-31T22:25:47.694Z,35.87
2018-12-31T22:28:17.183Z,34.67
2018-12-31T22:30:46.646Z,36.73
2018-12-31T22:33:16.422Z,36.50
2018-12-31T22:35:45.895Z,34.47
2018-12-31T22:38:15.382Z,35.60
2018-12-31T22:40:44.862Z,35.17
2018-12-31T22:43:14.906Z,34.27
2018-12-31T22:45:44.581Z,39.53
2018-12-31T22:48:14.106Z,40.27
2018-12-31T22:50:45.563Z,35.60
2018-12-31T22:53:15.058Z,38.50
2018-12-31T22:55:50.420Z,41.00
2018-12-31T22:58:19.904Z,51.50
2018-12-31T23:00:51.784Z,52.70
2018-12-31T23:03:21.306Z,232.93
2018-12-31T23:05:50.861Z,376.43
2018-12-31T23:08:20.372Z,335.93
2018-12-31T23:10:49.869Z,599.07
2018-12-31T23:13:19.368Z,596.97
2018-12-31T23:15:49.265Z,670.37
2018-12-31T23:18:19.261Z,694.13
2018-12-31T23:20:49.185Z,671.23
2018-12-31T23:23:18.681Z,638.40
2018-12-31T23:25:48.150Z,621.43
2018-12-31T23:28:19.701Z,572.90
2018-12-31T23:30:50.110Z,530.97
2018-12-31T23:33:19.701Z,521.60
2018-12-31T23:35:49.181Z,524.20
2018-12-31T23:38:18.650Z,476.37
2018-12-31T23:40:48.097Z,460.43
2018-12-31T23:43:17.626Z,414.87
2018-12-31T23:45:47.115Z,444.13
2018-12-31T23:48:16.738Z,438.70
2018-12-31T23:50:46.212Z,376.67
2018-12-31T23:53:17.252Z,386.87
2018-12-31T23:55:47.129Z,333.73
2018-12-31T23:58:16.647Z,374.53
